createdAt,value
2022-11-06T00:04:49.029Z,9.98
2022-11-06T00:09:46.274Z,6.97
2022-11-06T00:14:43.665Z,12.40
2022-11-06T00:19:40.869Z,10.80
2022-11-06T00:24:38.059Z,8.57
2022-11-06T00:29:35.577Z,9.80
2022-11-06T00:34:32.890Z,15.63
2022-11-06T00:39:30.159Z,6.88
2022-11-06T00:44:27.576Z,8.13
2022-11-06T00:49:24.849Z,6.55
2022-11-06T00:54:22.051Z,8.88
2022-11-06T00:59:19.619Z,7.75
2022-11-06T01:04:19.794Z,8.38
2022-11-06T01:09:20.249Z,10.75
2022-11-06T01:14:19.100Z,7.35
2022-11-06T01:19:18.272Z,7.10
2022-11-06T01:24:18.801Z,3.97
2022-11-06T01:29:18.260Z,6.43
2022-11-06T01:34:15.972Z,7.90
2022-11-06T01:39:15.066Z,7.35
2022-11-06T01:44:33.500Z,13.73
2022-11-06T01:49:36.120Z,6.47
2022-11-06T01:54:35.479Z,10.90
2022-11-06T01:59:36.604Z,5.57
2022-11-06T02:04:38.741Z,6.25
2022-11-06T02:09:36.435Z,6.00
2022-11-06T02:14:49.165Z,6.15
2022-11-06T02:20:15.925Z,8.75
2022-11-06T02:25:32.651Z,5.35
2022-11-06T02:30:35.090Z,6.05
2022-11-06T02:35:47.310Z,13.98
2022-11-06T02:40:50.569Z,5.97
2022-11-06T02:45:54.208Z,5.20
2022-11-06T02:50:54.970Z,7.93
2022-11-06T02:55:58.040Z,6.20
2022-11-06T03:01:08.199Z,5.85
2022-11-06T03:06:23.222Z,9.60
2022-11-06T03:11:31.079Z,4.45
2022-11-06T03:17:00.480Z,4.78
2022-11-06T03:22:21.418Z,12.60
2022-11-06T03:27:32.954Z,3.30
2022-11-06T03:32:53.822Z,5.00
2022-11-06T03:38:15.937Z,3.65
2022-11-06T03:43:16.503Z,3.97
2022-11-06T03:48:21.153Z,6.53
2022-11-06T03:53:22.381Z,9.15
2022-11-06T03:58:31.379Z,4.70
2022-11-06T04:03:49.212Z,3.65
2022-11-06T04:09:06.930Z,5.85
2022-11-06T04:14:06.153Z,4.65
2022-11-06T04:19:03.554Z,4.87
2022-11-06T04:24:37.954Z,6.35
2022-11-06T04:30:05.322Z,5.00
2022-11-06T04:35:05.694Z,7.93
2022-11-06T04:40:31.966Z,4.10
2022-11-06T04:45:44.541Z,7.00
2022-11-06T04:50:52.681Z,3.65
2022-11-06T04:55:56.394Z,3.63
2022-11-06T05:00:55.810Z,3.13
2022-11-06T05:05:54.032Z,2.50
2022-11-06T05:10:51.445Z,4.78
2022-11-06T05:15:49.201Z,3.72
2022-11-06T05:20:47.171Z,2.28
2022-11-06T05:25:45.137Z,3.05
2022-11-06T05:30:46.292Z,3.58
2022-11-06T05:35:43.531Z,3.65
2022-11-06T05:40:40.721Z,7.50
2022-11-06T05:45:38.071Z,5.85
2022-11-06T05:50:35.205Z,6.03
2022-11-06T05:55:32.446Z,15.23
2022-11-06T06:00:29.932Z,8.25
2022-11-06T06:05:27.589Z,5.53
2022-11-06T06:10:24.951Z,7.07
2022-11-06T06:15:22.195Z,5.93
2022-11-06T06:20:19.341Z,3.83
2022-11-06T06:25:22.706Z,4.35
2022-11-06T06:30:21.324Z,5.68
2022-11-06T06:35:19.005Z,5.82
2022-11-06T06:40:16.305Z,6.05
2022-11-06T06:45:14.004Z,7.20
2022-11-06T06:50:11.366Z,9.82
2022-11-06T06:55:08.985Z,6.30
2022-11-06T07:00:06.830Z,4.80
2022-11-06T07:05:04.622Z,3.92
2022-11-06T07:10:01.991Z,3.55
2022-11-06T07:14:59.291Z,3.47
2022-11-06T07:19:56.532Z,8.57
2022-11-06T07:24:53.792Z,47.97
2022-11-06T07:29:51.196Z,22.20
2022-11-06T07:34:48.531Z,8.32
2022-11-06T07:39:45.772Z,8.57
2022-11-06T07:44:43.059Z,3.28
2022-11-06T07:49:40.246Z,3.83
2022-11-06T07:54:37.527Z,2.67
2022-11-06T07:59:35.006Z,2.38
2022-11-06T08:04:32.311Z,3.28
2022-11-06T08:09:29.551Z,6.35
2022-11-06T08:14:27.365Z,2.60
2022-11-06T08:19:24.682Z,1.00
2022-11-06T08:24:22.357Z,1.50
2022-11-06T08:29:19.760Z,1.88
2022-11-06T08:34:17.081Z,1.30
2022-11-06T08:39:14.375Z,1.80
2022-11-06T08:44:11.683Z,2.97
2022-11-06T08:49:09.975Z,3.05
2022-11-06T08:54:07.470Z,1.40
2022-11-06T08:59:04.765Z,4.05
2022-11-06T09:04:02.012Z,1.88
2022-11-06T09:08:59.736Z,3.92
2022-11-06T09:13:58.535Z,4.55
2022-11-06T09:18:56.830Z,2.20
2022-11-06T09:23:54.335Z,3.70
2022-11-06T09:28:51.535Z,5.90
2022-11-06T09:33:48.813Z,4.15
2022-11-06T09:38:46.061Z,3.80
2022-11-06T09:44:11.702Z,1.05
2022-11-06T09:49:19.550Z,1.25
2022-11-06T09:54:36.613Z,0.98
2022-11-06T09:59:37.742Z,1.40
2022-11-06T10:04:51.720Z,3.60
2022-11-06T10:09:48.884Z,0.95
2022-11-06T10:15:08.319Z,0.90
2022-11-06T10:20:27.354Z,1.50
2022-11-06T10:25:53.023Z,1.45
2022-11-06T10:31:06.962Z,2.95
2022-11-06T10:36:31.957Z,1.92
2022-11-06T10:41:34.419Z,0.70
2022-11-06T10:46:41.601Z,1.33
2022-11-06T10:52:00.232Z,1.80
2022-11-06T10:57:22.101Z,0.65
2022-11-06T11:02:35.381Z,1.08
2022-11-06T11:07:34.957Z,1.58
2022-11-06T11:12:33.113Z,2.57
2022-11-06T11:17:30.341Z,1.00
2022-11-06T11:22:32.984Z,10.52
2022-11-06T11:27:35.431Z,4.20
2022-11-06T11:32:32.916Z,2.05
2022-11-06T11:37:32.422Z,0.70
2022-11-06T11:42:31.903Z,0.87
2022-11-06T11:47:29.195Z,0.67
2022-11-06T11:52:26.557Z,0.50
2022-11-06T11:57:34.267Z,0.95
2022-11-06T12:02:45.038Z,0.75
2022-11-06T12:07:57.475Z,1.48
2022-11-06T12:12:56.274Z,0.50
2022-11-06T12:18:06.021Z,1.02
2022-11-06T12:23:05.059Z,1.10
2022-11-06T12:28:05.287Z,0.40
2022-11-06T12:33:20.772Z,0.40
2022-11-06T12:38:54.705Z,0.40
2022-11-06T12:43:52.531Z,1.27
2022-11-06T12:49:15.659Z,0.52
2022-11-06T12:54:12.992Z,0.40
2022-11-06T12:59:17.321Z,0.60
2022-11-06T13:04:26.265Z,0.40
2022-11-06T13:09:37.234Z,0.55
2022-11-06T13:14:42.790Z,1.02
2022-11-06T13:19:55.537Z,0.43
2022-11-06T13:25:21.353Z,0.40
2022-11-06T13:30:21.695Z,0.60
2022-11-06T13:40:47.337Z,0.47
2022-11-06T13:46:04.235Z,0.82
2022-11-06T13:51:56.252Z,0.43
2022-11-06T13:57:00.965Z,0.95
2022-11-06T14:02:20.335Z,1.75
2022-11-06T14:07:18.781Z,0.82
2022-11-06T14:12:21.316Z,0.65
2022-11-06T14:17:18.525Z,0.60
2022-11-06T14:22:37.726Z,1.15
2022-11-06T14:27:41.010Z,2.88
2022-11-06T14:32:41.867Z,0.93
2022-11-06T14:37:47.128Z,0.70
2022-11-06T14:42:46.914Z,2.92
2022-11-06T14:47:49.923Z,1.80
2022-11-06T14:53:07.839Z,1.50
2022-11-06T14:58:26.041Z,5.75
2022-11-06T15:03:29.308Z,1.65
2022-11-06T15:08:51.034Z,1.98
2022-11-06T15:13:48.322Z,2.72
2022-11-06T15:18:47.758Z,1.50
2022-11-06T15:24:09.487Z,3.50
2022-11-06T15:29:17.206Z,2.47
2022-11-06T15:34:29.591Z,4.72
2022-11-06T15:39:29.880Z,5.25
2022-11-06T15:49:25.774Z,5.50
2022-11-06T15:54:35.862Z,4.70
2022-11-06T15:59:33.538Z,6.88
2022-11-06T16:04:32.437Z,3.95
2022-11-06T16:09:29.919Z,8.20
2022-11-06T16:14:27.643Z,16.15
2022-11-06T16:19:35.134Z,14.55
2022-11-06T16:24:40.633Z,17.98
2022-11-06T16:29:39.398Z,16.23
2022-11-06T16:34:38.698Z,14.05
2022-11-06T16:39:50.186Z,9.85
2022-11-06T16:44:50.641Z,7.50
2022-11-06T16:49:53.725Z,14.73
2022-11-06T16:54:57.120Z,12.70
2022-11-06T17:00:05.949Z,7.65
2022-11-06T17:05:17.470Z,11.73
2022-11-06T17:10:36.409Z,16.67
2022-11-06T17:15:34.029Z,17.58
2022-11-06T17:20:32.274Z,21.85
2022-11-06T17:25:30.999Z,44.72
2022-11-06T17:30:28.818Z,25.60
2022-11-06T17:35:27.367Z,24.80
2022-11-06T17:40:25.080Z,22.38
2022-11-06T17:45:23.188Z,22.20
2022-11-06T17:50:20.993Z,17.58
2022-11-06T17:55:18.823Z,11.15
2022-11-06T18:00:17.119Z,15.68
2022-11-06T18:05:14.942Z,14.23
2022-11-06T18:10:12.859Z,18.77
2022-11-06T18:15:11.077Z,20.20
2022-11-06T18:20:11.207Z,16.57
2022-11-06T18:25:09.402Z,28.83
2022-11-06T18:30:07.752Z,14.20
2022-11-06T18:35:06.820Z,12.68
2022-11-06T18:40:04.912Z,17.85
2022-11-06T18:45:02.950Z,22.95
2022-11-06T18:50:01.000Z,18.45
2022-11-06T18:55:01.103Z,25.55
2022-11-06T18:59:58.996Z,17.92
2022-11-06T19:04:56.980Z,17.05
2022-11-06T19:09:54.791Z,26.38
2022-11-06T19:14:53.714Z,35.53
2022-11-06T19:19:51.476Z,33.25
2022-11-06T19:24:49.195Z,38.95
2022-11-06T19:29:47.121Z,27.02
2022-11-06T19:34:45.072Z,22.77
2022-11-06T19:39:42.855Z,42.58
2022-11-06T19:44:40.760Z,32.97
2022-11-06T19:49:39.210Z,22.35
2022-11-06T19:54:36.965Z,18.65
2022-11-06T19:59:37.729Z,22.45
2022-11-06T20:04:35.555Z,19.90
2022-11-06T20:09:34.604Z,22.83
2022-11-06T20:14:32.429Z,14.20
2022-11-06T20:19:30.253Z,20.27
2022-11-06T20:24:28.051Z,17.35
2022-11-06T20:29:25.892Z,13.38
2022-11-06T20:34:23.657Z,20.05
2022-11-06T20:39:21.336Z,26.00
2022-11-06T20:44:19.172Z,13.13
2022-11-06T20:49:17.028Z,14.07
2022-11-06T20:54:14.781Z,16.30
2022-11-06T20:59:12.501Z,16.80
2022-11-06T21:04:12.244Z,12.02
2022-11-06T21:09:10.739Z,15.37
2022-11-06T21:14:08.297Z,11.75
2022-11-06T21:19:08.222Z,15.48
2022-11-06T21:24:06.691Z,22.52
2022-11-06T21:29:10.937Z,16.17
2022-11-06T21:34:10.036Z,14.85
2022-11-06T21:39:13.255Z,24.75
2022-11-06T21:44:14.725Z,15.85
2022-11-06T21:49:12.052Z,21.92
2022-11-06T21:54:30.081Z,18.83
2022-11-06T21:59:28.686Z,16.23
2022-11-06T22:04:25.970Z,17.05
2022-11-06T22:09:25.579Z,23.15
2022-11-06T22:14:23.175Z,16.58
2022-11-06T22:19:20.396Z,26.20
2022-11-06T22:24:17.646Z,16.08
2022-11-06T22:29:15.310Z,11.70
2022-11-06T22:34:13.579Z,15.82
2022-11-06T22:39:12.307Z,12.60
2022-11-06T22:44:09.744Z,15.88
2022-11-06T22:49:08.197Z,21.58
2022-11-06T22:54:05.738Z,14.95
2022-11-06T22:59:08.710Z,11.52
2022-11-06T23:04:08.669Z,10.50
2022-11-06T23:09:06.067Z,8.95
2022-11-06T23:14:08.537Z,14.25
2022-11-06T23:19:07.223Z,11.75
2022-11-06T23:24:06.104Z,11.93
2022-11-06T23:29:04.127Z,11.55
2022-11-06T23:34:01.447Z,9.80
2022-11-06T23:38:58.783Z,12.57
2022-11-06T23:43:57.007Z,13.68
2022-11-06T23:48:54.872Z,17.00
2022-11-06T23:53:52.629Z,13.38
2022-11-06T23:58:49.911Z,10.02
